createdAt,value
2023-02-19T00:01:22.076Z,80.52
2023-02-19T00:04:25.497Z,80.55
2023-02-19T00:07:28.767Z,80.51
2023-02-19T00:10:32.047Z,80.42
2023-02-19T00:13:44.167Z,80.32
2023-02-19T00:16:49.525Z,80.26
2023-02-19T00:19:52.926Z,80.10
2023-02-19T00:22:56.214Z,80.02
2023-02-19T00:26:17.612Z,79.87
2023-02-19T00:29:22.790Z,79.80
2023-02-19T00:32:26.774Z,79.72
2023-02-19T00:35:30.120Z,79.63
2023-02-19T00:38:37.209Z,79.51
2023-02-19T00:41:40.534Z,79.46
2023-02-19T00:44:43.908Z,79.44
2023-02-19T00:47:48.680Z,79.42
2023-02-19T00:50:51.968Z,79.44
2023-02-19T00:53:56.216Z,79.45
2023-02-19T00:57:00.718Z,79.58
2023-02-19T01:00:05.070Z,79.67
2023-02-19T01:03:08.458Z,79.76
2023-02-19T01:06:15.045Z,79.81
2023-02-19T01:09:18.261Z,79.83
2023-02-19T01:12:21.627Z,79.79
2023-02-19T01:15:25.334Z,79.79
2023-02-19T01:18:28.568Z,79.82
2023-02-19T01:21:32.143Z,79.86
2023-02-19T01:24:35.687Z,79.91
2023-02-19T01:27:38.824Z,79.98
2023-02-19T01:30:42.103Z,80.08
2023-02-19T01:33:47.031Z,80.19
2023-02-19T01:36:50.300Z,80.25
2023-02-19T01:39:53.687Z,80.30
2023-02-19T01:42:57.009Z,80.40
2023-02-19T01:46:00.859Z,80.48
2023-02-19T01:49:21.543Z,80.56
2023-02-19T01:52:32.740Z,80.66
2023-02-19T01:55:36.353Z,80.69
2023-02-19T01:58:40.393Z,80.74
2023-02-19T02:01:43.813Z,80.79
2023-02-19T02:04:47.499Z,80.82
2023-02-19T02:08:10.779Z,80.88
2023-02-19T02:11:14.272Z,80.94
2023-02-19T02:14:19.725Z,80.98
2023-02-19T02:17:36.744Z,81.07
2023-02-19T02:20:52.207Z,81.18
2023-02-19T02:24:14.050Z,81.27
2023-02-19T02:27:27.585Z,81.36
2023-02-19T02:30:48.888Z,81.44
2023-02-19T02:34:07.291Z,81.52
2023-02-19T02:37:12.276Z,81.57
2023-02-19T02:40:17.915Z,81.61
2023-02-19T02:43:21.392Z,81.66
2023-02-19T02:46:30.424Z,81.75
2023-02-19T02:49:55.673Z,81.83
2023-02-19T02:53:26.922Z,81.81
2023-02-19T02:56:31.662Z,81.83
2023-02-19T02:59:39.427Z,81.86
2023-02-19T03:02:44.018Z,81.86
2023-02-19T03:05:52.777Z,81.88
2023-02-19T03:09:19.357Z,81.93
2023-02-19T03:12:42.508Z,81.90
2023-02-19T03:16:10.250Z,81.89
2023-02-19T03:19:19.206Z,81.89
2023-02-19T03:22:27.708Z,81.83
2023-02-19T03:25:52.494Z,81.85
2023-02-19T03:29:22.628Z,81.86
2023-02-19T03:32:34.529Z,81.80
2023-02-19T03:35:44.925Z,81.73
2023-02-19T03:38:59.514Z,81.72
2023-02-19T03:42:18.062Z,81.69
2023-02-19T03:45:32.101Z,81.63
2023-02-19T03:48:38.348Z,81.59
2023-02-19T03:51:50.553Z,81.58
2023-02-19T03:55:02.845Z,81.59
2023-02-19T03:58:35.319Z,81.58
2023-02-19T04:01:43.427Z,81.55
2023-02-19T04:05:07.518Z,81.55
2023-02-19T04:08:16.151Z,81.60
2023-02-19T04:11:24.610Z,81.57
2023-02-19T04:14:34.904Z,81.62
2023-02-19T04:17:47.824Z,81.70
2023-02-19T04:20:51.644Z,81.74
2023-02-19T04:23:58.580Z,81.78
2023-02-19T04:27:02.788Z,81.80
2023-02-19T04:30:08.537Z,81.83
2023-02-19T04:33:11.773Z,81.87
2023-02-19T04:36:14.922Z,81.88
2023-02-19T04:39:18.155Z,81.95
2023-02-19T04:42:21.344Z,81.98
2023-02-19T04:45:24.562Z,81.99
2023-02-19T04:48:28.296Z,82.02
2023-02-19T04:51:31.480Z,82.08
2023-02-19T04:54:34.807Z,82.12
2023-02-19T04:57:38.025Z,82.13
2023-02-19T05:00:41.370Z,82.16
2023-02-19T05:03:44.851Z,82.20
2023-02-19T05:06:48.095Z,82.20
2023-02-19T05:09:51.323Z,82.23
2023-02-19T05:12:57.803Z,82.29
2023-02-19T05:16:07.422Z,82.29
2023-02-19T05:19:13.656Z,82.26
2023-02-19T05:22:17.191Z,82.28
2023-02-19T05:25:20.445Z,82.27
2023-02-19T05:28:28.846Z,82.27
2023-02-19T05:31:33.891Z,82.23
2023-02-19T05:34:37.323Z,82.21
2023-02-19T05:37:40.491Z,82.20
2023-02-19T05:40:44.809Z,82.19
2023-02-19T05:43:49.340Z,82.22
2023-02-19T05:46:52.539Z,82.27
2023-02-19T05:49:55.838Z,82.32
2023-02-19T05:53:05.713Z,82.33
2023-02-19T05:56:30.876Z,82.35
2023-02-19T05:59:34.061Z,82.39
2023-02-19T06:02:37.934Z,82.41
2023-02-19T06:05:41.234Z,82.43
2023-02-19T06:08:44.840Z,82.52
2023-02-19T06:11:48.049Z,82.65
2023-02-19T06:14:51.542Z,82.75
2023-02-19T06:17:55.007Z,82.82
2023-02-19T06:21:05.909Z,82.88
2023-02-19T06:24:10.002Z,82.94
2023-02-19T06:27:13.283Z,82.96
2023-02-19T06:30:16.631Z,83.04
2023-02-19T06:33:19.839Z,83.06
2023-02-19T06:36:23.851Z,83.08
2023-02-19T06:39:27.846Z,83.09
2023-02-19T06:42:33.880Z,83.12
2023-02-19T06:45:37.189Z,83.15
2023-02-19T06:48:41.657Z,83.21
2023-02-19T06:51:44.855Z,83.22
2023-02-19T06:54:48.041Z,83.20
2023-02-19T06:57:51.225Z,83.21
2023-02-19T07:00:54.764Z,83.20
2023-02-19T07:03:58.364Z,83.24
2023-02-19T07:07:01.562Z,83.29
2023-02-19T07:10:05.132Z,83.33
2023-02-19T07:13:08.311Z,83.30
2023-02-19T07:16:13.314Z,83.27
2023-02-19T07:19:16.853Z,83.29
2023-02-19T07:22:20.110Z,83.36
2023-02-19T07:25:23.318Z,83.43
2023-02-19T07:28:26.622Z,83.53
2023-02-19T07:31:30.053Z,83.57
2023-02-19T07:34:33.326Z,83.56
2023-02-19T07:37:36.575Z,84.07
2023-02-19T07:40:39.806Z,84.31
2023-02-19T07:43:43.221Z,84.32
2023-02-19T07:46:46.476Z,84.23
2023-02-19T07:49:49.662Z,84.21
2023-02-19T07:52:52.831Z,84.22
2023-02-19T07:56:06.927Z,84.24
2023-02-19T07:59:10.785Z,84.27
2023-02-19T08:02:37.372Z,84.26
2023-02-19T08:05:42.289Z,84.33
2023-02-19T08:08:45.559Z,84.27
2023-02-19T08:12:07.388Z,84.23
2023-02-19T08:15:10.603Z,84.16
2023-02-19T08:18:16.516Z,84.08
2023-02-19T08:21:20.700Z,83.97
2023-02-19T08:24:24.438Z,83.90
2023-02-19T08:27:27.732Z,83.84
2023-02-19T08:30:32.386Z,83.74
2023-02-19T08:33:36.759Z,83.71
2023-02-19T08:36:40.267Z,83.64
2023-02-19T08:39:43.597Z,83.61
2023-02-19T08:42:46.924Z,83.59
2023-02-19T08:45:54.614Z,83.52
2023-02-19T08:48:58.350Z,83.47
2023-02-19T08:52:01.907Z,83.39
2023-02-19T08:55:06.286Z,83.33
2023-02-19T08:58:11.620Z,83.27
2023-02-19T09:01:18.837Z,83.24
2023-02-19T09:04:22.463Z,83.27
2023-02-19T09:07:26.020Z,83.27
2023-02-19T09:10:29.262Z,83.21
2023-02-19T09:13:32.688Z,83.16
2023-02-19T09:16:37.101Z,83.14
2023-02-19T09:19:40.334Z,83.14
2023-02-19T09:22:43.571Z,83.12
2023-02-19T09:25:47.143Z,83.14
2023-02-19T09:28:50.722Z,83.12
2023-02-19T09:32:01.040Z,83.01
2023-02-19T09:36:05.867Z,82.85
2023-02-19T09:39:10.491Z,82.39
2023-02-19T09:42:24.804Z,81.89
2023-02-19T09:45:28.168Z,81.52
2023-02-19T09:48:32.268Z,81.16
2023-02-19T09:51:38.009Z,81.00
2023-02-19T09:54:41.951Z,80.86
2023-02-19T09:57:46.692Z,80.79
2023-02-19T10:00:51.152Z,80.61
2023-02-19T10:03:54.930Z,80.58
2023-02-19T10:07:03.520Z,80.54
2023-02-19T10:10:29.067Z,80.41
2023-02-19T10:13:37.750Z,80.32
2023-02-19T10:16:43.879Z,80.20
2023-02-19T10:19:47.159Z,80.11
2023-02-19T10:23:04.188Z,79.98
2023-02-19T10:26:07.397Z,79.99
2023-02-19T10:29:11.271Z,79.85
2023-02-19T10:32:24.048Z,79.65
2023-02-19T10:35:28.011Z,79.54
2023-02-19T10:38:40.661Z,79.39
2023-02-19T10:41:44.411Z,79.43
2023-02-19T10:44:53.868Z,79.08
2023-02-19T10:47:57.805Z,78.90
2023-02-19T10:51:08.643Z,78.74
2023-02-19T10:54:19.231Z,78.67
2023-02-19T10:57:34.036Z,78.51
2023-02-19T11:00:38.398Z,78.47
2023-02-19T11:03:42.148Z,78.57
2023-02-19T11:06:46.960Z,78.50
2023-02-19T11:09:53.782Z,78.37
2023-02-19T11:13:01.334Z,78.30
2023-02-19T11:16:05.499Z,78.35
2023-02-19T11:19:44.460Z,78.39
2023-02-19T11:22:49.368Z,78.23
2023-02-19T11:25:54.429Z,78.31
2023-02-19T11:28:59.969Z,78.23
2023-02-19T11:32:25.708Z,78.26
2023-02-19T11:35:29.973Z,78.22
2023-02-19T11:38:33.438Z,78.07
2023-02-19T11:41:47.639Z,77.93
2023-02-19T11:45:26.489Z,77.86
2023-02-19T11:48:38.740Z,77.84
2023-02-19T11:52:26.061Z,77.78
2023-02-19T11:56:16.843Z,77.74
2023-02-19T11:59:31.509Z,77.83
2023-02-19T12:02:46.112Z,77.74
2023-02-19T12:06:11.126Z,77.68
2023-02-19T12:09:24.313Z,77.72
2023-02-19T12:12:42.536Z,77.79
2023-02-19T12:16:00.922Z,77.73
2023-02-19T12:19:08.273Z,79.74
2023-02-19T12:22:22.266Z,80.27
2023-02-19T12:25:36.255Z,79.51
2023-02-19T12:28:45.271Z,78.93
2023-02-19T12:32:00.717Z,78.49
2023-02-19T12:35:15.836Z,78.13
2023-02-19T12:38:33.691Z,77.96
2023-02-19T12:42:06.300Z,77.86
2023-02-19T12:45:24.851Z,77.64
2023-02-19T12:48:39.818Z,77.45
2023-02-19T12:51:49.777Z,77.37
2023-02-19T12:54:56.354Z,77.35
2023-02-19T12:58:04.531Z,77.13
2023-02-19T13:01:18.910Z,76.78
2023-02-19T13:04:25.563Z,76.46
2023-02-19T13:07:39.408Z,76.46
2023-02-19T13:10:56.847Z,76.36
2023-02-19T13:14:26.424Z,76.28
2023-02-19T13:17:42.776Z,76.26
2023-02-19T13:20:48.823Z,76.11
2023-02-19T13:23:58.520Z,76.09
2023-02-19T13:27:23.956Z,75.94
2023-02-19T13:30:39.656Z,75.86
2023-02-19T13:34:05.918Z,75.69
2023-02-19T13:37:11.508Z,75.73
2023-02-19T13:40:35.616Z,75.46
2023-02-19T13:43:39.171Z,75.41
2023-02-19T13:46:45.456Z,75.42
2023-02-19T13:49:49.579Z,75.40
2023-02-19T13:52:55.070Z,75.18
2023-02-19T13:55:58.269Z,75.06
2023-02-19T13:59:25.594Z,75.04
2023-02-19T14:02:35.505Z,75.03
2023-02-19T14:06:04.404Z,75.01
2023-02-19T14:09:36.258Z,74.99
2023-02-19T14:12:39.583Z,74.98
2023-02-19T14:15:49.421Z,74.90
2023-02-19T14:18:52.896Z,74.83
2023-02-19T14:21:56.129Z,74.94
2023-02-19T14:25:00.653Z,74.93
2023-02-19T14:28:06.946Z,74.86
2023-02-19T14:31:19.650Z,74.84
2023-02-19T14:34:26.944Z,74.85
2023-02-19T14:37:30.354Z,74.82
2023-02-19T14:40:44.327Z,74.86
2023-02-19T14:43:50.925Z,74.88
2023-02-19T14:47:06.534Z,74.90
2023-02-19T14:50:29.519Z,74.70
2023-02-19T14:53:38.981Z,74.63
2023-02-19T14:56:46.860Z,74.50
2023-02-19T14:59:55.806Z,74.41
2023-02-19T15:02:59.874Z,74.50
2023-02-19T15:06:11.556Z,74.30
2023-02-19T15:09:16.551Z,73.84
2023-02-19T15:12:25.645Z,73.74
2023-02-19T15:15:32.697Z,73.53
2023-02-19T15:18:38.039Z,73.47
2023-02-19T15:21:46.726Z,73.36
2023-02-19T15:24:50.057Z,73.32
2023-02-19T15:27:53.316Z,73.17
2023-02-19T15:30:59.698Z,72.99
2023-02-19T15:34:02.987Z,72.86
2023-02-19T15:37:11.190Z,72.81
2023-02-19T15:40:15.484Z,72.76
2023-02-19T15:43:26.946Z,72.61
2023-02-19T15:46:31.020Z,72.56
2023-02-19T15:49:54.854Z,72.54
2023-02-19T15:53:12.736Z,72.51
2023-02-19T15:56:29.485Z,72.39
2023-02-19T15:59:36.785Z,72.45
2023-02-19T16:02:40.770Z,72.48
2023-02-19T16:05:44.222Z,72.37
2023-02-19T16:09:04.293Z,72.36
2023-02-19T16:12:23.147Z,72.30
2023-02-19T16:15:28.726Z,72.31
2023-02-19T16:18:32.469Z,72.31
2023-02-19T16:21:36.189Z,72.24
2023-02-19T16:24:45.454Z,72.11
2023-02-19T16:27:48.946Z,71.96
2023-02-19T16:30:58.324Z,71.99
2023-02-19T16:34:17.787Z,71.87
2023-02-19T16:37:41.889Z,71.66
2023-02-19T16:40:48.991Z,71.62
2023-02-19T16:43:52.176Z,71.69
2023-02-19T16:47:01.667Z,71.54
2023-02-19T16:50:41.746Z,71.45
2023-02-19T16:54:01.772Z,71.43
2023-02-19T16:57:46.020Z,71.34
2023-02-19T17:15:29.673Z,71.01
2023-02-19T17:18:39.296Z,70.73
2023-02-19T17:21:43.124Z,70.64
2023-02-19T17:24:47.475Z,70.47
2023-02-19T17:27:50.671Z,70.25
2023-02-19T17:30:54.245Z,70.25
2023-02-19T17:33:57.546Z,70.21
2023-02-19T17:37:00.819Z,70.19
2023-02-19T17:40:04.301Z,70.21
2023-02-19T17:43:08.092Z,70.13
2023-02-19T17:46:15.972Z,70.10
2023-02-19T17:49:19.740Z,70.12
2023-02-19T17:52:23.031Z,70.01
2023-02-19T17:55:29.668Z,69.90
2023-02-19T17:58:32.948Z,69.77
2023-02-19T18:01:36.358Z,69.76
2023-02-19T18:04:41.182Z,69.82
2023-02-19T18:07:45.826Z,69.80
2023-02-19T18:10:49.082Z,69.80
2023-02-19T18:13:52.675Z,69.78
2023-02-19T18:16:56.170Z,69.76
2023-02-19T18:20:44.989Z,70.12
2023-02-19T18:23:48.293Z,69.88
2023-02-19T18:26:51.484Z,69.67
2023-02-19T18:29:56.380Z,69.53
2023-02-19T18:32:59.569Z,69.25
2023-02-19T18:36:03.751Z,69.20
2023-02-19T18:39:07.136Z,69.16
2023-02-19T18:42:12.589Z,69.07
2023-02-19T18:45:17.066Z,69.01
2023-02-19T18:48:21.480Z,68.94
2023-02-19T18:51:35.651Z,68.83
2023-02-19T18:54:39.690Z,68.71
2023-02-19T18:57:44.131Z,68.79
2023-02-19T19:00:47.331Z,68.66
2023-02-19T19:03:50.658Z,68.61
2023-02-19T19:06:53.934Z,68.60
2023-02-19T19:10:08.100Z,68.53
2023-02-19T19:13:11.454Z,68.40
2023-02-19T19:16:26.690Z,68.36
2023-02-19T19:19:29.952Z,68.23
2023-02-19T19:22:50.430Z,68.40
2023-02-19T19:26:07.652Z,68.36
2023-02-19T19:29:12.148Z,68.37
2023-02-19T19:32:15.770Z,68.38
2023-02-19T19:35:20.145Z,68.42
2023-02-19T19:38:23.745Z,68.39
2023-02-19T19:41:26.971Z,68.42
2023-02-19T19:44:30.269Z,68.52
2023-02-19T19:47:33.557Z,68.52
2023-02-19T19:50:36.755Z,68.51
2023-02-19T19:53:40.143Z,68.46
2023-02-19T19:56:45.850Z,68.50
2023-02-19T19:59:51.281Z,68.57
2023-02-19T20:02:54.587Z,68.58
2023-02-19T20:05:58.165Z,68.57
2023-02-19T20:09:01.513Z,68.57
2023-02-19T20:12:05.257Z,68.57
2023-02-19T20:15:09.736Z,68.57
2023-02-19T20:18:13.121Z,68.62
2023-02-19T20:21:16.363Z,68.62
2023-02-19T20:24:26.039Z,68.59
2023-02-19T20:27:29.398Z,68.52
2023-02-19T20:36:58.759Z,68.59
2023-02-19T20:43:31.499Z,68.42
2023-02-19T20:47:18.452Z,68.40
2023-02-19T20:55:35.844Z,68.56
2023-02-19T20:59:19.915Z,68.55
2023-02-19T21:08:22.458Z,68.62
2023-02-19T21:11:29.571Z,68.53
2023-02-19T21:19:10.442Z,68.63
2023-02-19T21:22:35.460Z,68.50
2023-02-19T21:29:59.415Z,68.57
2023-02-19T21:39:03.123Z,68.60
2023-02-19T21:42:06.756Z,68.61
2023-02-19T21:45:10.327Z,68.60
2023-02-19T21:48:13.976Z,68.62
2023-02-19T21:51:19.141Z,68.62
2023-02-19T21:54:24.954Z,68.60
2023-02-19T21:57:28.342Z,68.58
2023-02-19T22:00:31.996Z,68.64
2023-02-19T22:03:35.297Z,68.65
2023-02-19T22:06:41.514Z,68.66
2023-02-19T22:09:44.800Z,68.65
2023-02-19T22:12:48.150Z,68.61
2023-02-19T22:15:51.394Z,68.61
2023-02-19T22:18:59.482Z,68.58
2023-02-19T22:22:03.152Z,68.65
2023-02-19T22:25:06.950Z,68.64
2023-02-19T22:28:10.425Z,68.70
2023-02-19T22:31:15.788Z,68.72
2023-02-19T22:34:19.142Z,68.69
2023-02-19T22:37:22.517Z,68.71
2023-02-19T22:40:25.834Z,68.75
2023-02-19T22:43:29.112Z,68.76
2023-02-19T22:46:32.360Z,68.77
2023-02-19T22:49:38.710Z,68.72
2023-02-19T22:52:42.233Z,68.74
2023-02-19T22:55:45.603Z,68.78
2023-02-19T22:58:48.963Z,68.81
2023-02-19T23:01:53.226Z,68.83
2023-02-19T23:04:56.652Z,68.88
2023-02-19T23:08:00.128Z,68.92
2023-02-19T23:11:03.385Z,68.95
2023-02-19T23:14:08.023Z,68.98
2023-02-19T23:17:11.501Z,69.03
2023-02-19T23:20:14.820Z,69.04
2023-02-19T23:23:18.157Z,69.06
2023-02-19T23:26:21.509Z,69.08
2023-02-19T23:29:27.119Z,69.06
2023-02-19T23:32:30.397Z,69.06
2023-02-19T23:35:33.679Z,69.08
2023-02-19T23:38:37.177Z,69.06
2023-02-19T23:41:46.452Z,69.08
2023-02-19T23:44:49.786Z,69.10
2023-02-19T23:47:53.155Z,69.10
2023-02-19T23:50:56.421Z,69.11
2023-02-19T23:53:59.881Z,69.11
2023-02-19T23:57:03.235Z,69.10
